Terminal Aerodrome Forecast
Issued by NWS Caribou, ME

Home | Current Version | Previous Version | Text Only | Print | Product List | Glossary On
Versions: 1 2 3 4 5 6 7 8 9 10 11 12 13 14 15 16 17 18 19 20 21 22 23 24 25 26 27 28 29
000
FTUS41 KCAR 160900 AAB
TAFBGR
TAF AMD
KBGR 160913Z 1609/1706 31012G22KT 1 1/2SM -SNPL BR OVC005
      TEMPO 1609/1612 1/2SM SN FZFG VV004
     FM161200 31010G18KT P6SM VCSH OVC020
     FM161400 32020G28KT P6SM SCT050
     FM161500 32020G28KT P6SM SCT250
     FM162200 31011G19KT P6SM SKC
     FM170000 31005KT P6SM SKC=

USA.gov is the U.S. government's official web portal to all federal, state and local government web resources and services.